Allensville, Kentucky
Current Conditions -  °F | °C
As of 3:15 PM on Sunday 23 Nov 2014 (Local Time) from KM91 Reporting Station
Overcast Overcast  
Wind Chill: 14°   Ceiling: 1000
Heat Index: 14°   Visibility: 7mi
Dew Point: 14°   Wind: 10mph
Humidity: 100%   Direction: 160°SSE
Pressure: 29.44"   Gusts: NA
Location:  36.72°N, 87.07°W
Report Text: KM91 232115Z AUTO 16009KT 7SM OVC010 14/14 A2944 RMK
Loading
Personal Weather Stations






























Interactive Weather Map New forecast layout! Learn more

10-Day Weather Forecast

Advertisements
Track Severe Weather on mobile